sensor_id;sensor_type;location;lat;lon;timestamp;temperature;humidity
12843;DHT22;35724;49.324;-123.118;2023-05-14T00:00:29;25.90;52.90
12843;DHT22;35724;49.324;-123.118;2023-05-14T00:22:12;26.00;54.40
12843;DHT22;35724;49.324;-123.118;2023-05-14T00:44:41;26.40;56.80
12843;DHT22;35724;49.324;-123.118;2023-05-14T00:55:16;26.50;56.70
12843;DHT22;35724;49.324;-123.118;2023-05-14T01:16:26;26.70;56.70
12843;DHT22;35724;49.324;-123.118;2023-05-14T01:26:36;26.80;57.90
12843;DHT22;35724;49.324;-123.118;2023-05-14T01:36:43;26.80;57.30
12843;DHT22;35724;49.324;-123.118;2023-05-14T01:46:52;26.70;56.40
12843;DHT22;35724;49.324;-123.118;2023-05-14T01:56:59;26.60;56.10
12843;DHT22;35724;49.324;-123.118;2023-05-14T02:07:10;26.70;56.70
12843;DHT22;35724;49.324;-123.118;2023-05-14T02:17:17;26.60;57.00
12843;DHT22;35724;49.324;-123.118;2023-05-14T02:27:37;26.60;57.10
12843;DHT22;35724;49.324;-123.118;2023-05-14T02:37:50;26.60;57.10
12843;DHT22;35724;49.324;-123.118;2023-05-14T02:58:55;26.50;56.10
12843;DHT22;35724;49.324;-123.118;2023-05-14T03:09:02;26.50;55.50
12843;DHT22;35724;49.324;-123.118;2023-05-14T03:19:11;26.30;54.30
12843;DHT22;35724;49.324;-123.118;2023-05-14T03:29:19;26.20;54.60
12843;DHT22;35724;49.324;-123.118;2023-05-14T03:39:28;26.10;54.70
12843;DHT22;35724;49.324;-123.118;2023-05-14T03:49:35;26.00;55.60
12843;DHT22;35724;49.324;-123.118;2023-05-14T03:59:46;26.00;55.60
12843;DHT22;35724;49.324;-123.118;2023-05-14T04:09:54;25.90;55.10
12843;DHT22;35724;49.324;-123.118;2023-05-14T04:20:16;26.00;54.40
12843;DHT22;35724;49.324;-123.118;2023-05-14T04:30:23;26.10;54.20
12843;DHT22;35724;49.324;-123.118;2023-05-14T04:40:32;26.20;54.00
12843;DHT22;35724;49.324;-123.118;2023-05-14T05:03:23;26.30;57.40
12843;DHT22;35724;49.324;-123.118;2023-05-14T05:14:07;26.40;58.10
12843;DHT22;35724;49.324;-123.118;2023-05-14T05:24:17;26.40;58.60
12843;DHT22;35724;49.324;-123.118;2023-05-14T05:34:27;26.50;57.90
12843;DHT22;35724;49.324;-123.118;2023-05-14T05:44:40;26.50;57.60
12843;DHT22;35724;49.324;-123.118;2023-05-14T05:54:52;26.50;57.50
12843;DHT22;35724;49.324;-123.118;2023-05-14T06:05:27;26.50;57.50
12843;DHT22;35724;49.324;-123.118;2023-05-14T06:16:02;26.50;57.20
12843;DHT22;35724;49.324;-123.118;2023-05-14T06:39:21;26.40;57.20
12843;DHT22;35724;49.324;-123.118;2023-05-14T06:49:32;26.40;56.60
12843;DHT22;35724;49.324;-123.118;2023-05-14T06:59:41;26.40;56.30
12843;DHT22;35724;49.324;-123.118;2023-05-14T07:09:53;26.40;56.10
12843;DHT22;35724;49.324;-123.118;2023-05-14T07:20:05;26.50;56.00
12843;DHT22;35724;49.324;-123.118;2023-05-14T07:30:15;26.50;55.80
12843;DHT22;35724;49.324;-123.118;2023-05-14T07:40:26;26.50;55.50
12843;DHT22;35724;49.324;-123.118;2023-05-14T07:50:33;26.50;55.30
12843;DHT22;35724;49.324;-123.118;2023-05-14T08:00:49;26.60;55.20
12843;DHT22;35724;49.324;-123.118;2023-05-14T08:10:56;26.60;55.10
12843;DHT22;35724;49.324;-123.118;2023-05-14T08:21:19;26.60;55.00
12843;DHT22;35724;49.324;-123.118;2023-05-14T08:31:35;26.70;54.70
12843;DHT22;35724;49.324;-123.118;2023-05-14T08:41:44;26.70;54.60
12843;DHT22;35724;49.324;-123.118;2023-05-14T08:51:52;26.70;54.50
12843;DHT22;35724;49.324;-123.118;2023-05-14T09:02:02;26.70;54.20
12843;DHT22;35724;49.324;-123.118;2023-05-14T09:12:11;26.70;54.20
12843;DHT22;35724;49.324;-123.118;2023-05-14T09:22:22;26.80;54.20
12843;DHT22;35724;49.324;-123.118;2023-05-14T09:32:35;26.80;54.10
12843;DHT22;35724;49.324;-123.118;2023-05-14T09:42:49;26.80;54.00
12843;DHT22;35724;49.324;-123.118;2023-05-14T09:52:57;26.80;53.80
12843;DHT22;35724;49.324;-123.118;2023-05-14T10:03:08;26.80;53.70
12843;DHT22;35724;49.324;-123.118;2023-05-14T10:13:23;26.80;53.60
12843;DHT22;35724;49.324;-123.118;2023-05-14T10:23:33;26.90;53.50
12843;DHT22;35724;49.324;-123.118;2023-05-14T10:33:47;26.90;53.40
12843;DHT22;35724;49.324;-123.118;2023-05-14T10:44:07;26.90;53.30
12843;DHT22;35724;49.324;-123.118;2023-05-14T10:54:25;27.00;53.20
12843;DHT22;35724;49.324;-123.118;2023-05-14T11:04:45;27.00;53.00
12843;DHT22;35724;49.324;-123.118;2023-05-14T11:15:35;27.00;52.90
12843;DHT22;35724;49.324;-123.118;2023-05-14T11:36:42;27.00;52.80
12843;DHT22;35724;49.324;-123.118;2023-05-14T11:47:05;27.10;52.70
12843;DHT22;35724;49.324;-123.118;2023-05-14T11:57:33;27.10;52.60
12843;DHT22;35724;49.324;-123.118;2023-05-14T12:07:44;27.10;52.50
12843;DHT22;35724;49.324;-123.118;2023-05-14T12:18:02;27.20;52.80
12843;DHT22;35724;49.324;-123.118;2023-05-14T12:39:25;27.20;52.30
12843;DHT22;35724;49.324;-123.118;2023-05-14T13:00:31;27.30;52.20
12843;DHT22;35724;49.324;-123.118;2023-05-14T13:10:40;27.30;52.10
12843;DHT22;35724;49.324;-123.118;2023-05-14T13:21:15;27.30;51.90
12843;DHT22;35724;49.324;-123.118;2023-05-14T13:31:42;27.30;51.80
12843;DHT22;35724;49.324;-123.118;2023-05-14T13:53:32;27.40;51.60
12843;DHT22;35724;49.324;-123.118;2023-05-14T14:04:06;27.30;51.50
12843;DHT22;35724;49.324;-123.118;2023-05-14T14:14:21;27.40;51.60
12843;DHT22;35724;49.324;-123.118;2023-05-14T14:24:31;27.40;51.60
12843;DHT22;35724;49.324;-123.118;2023-05-14T14:35:09;27.40;51.50
12843;DHT22;35724;49.324;-123.118;2023-05-14T14:45:23;27.40;51.40
12843;DHT22;35724;49.324;-123.118;2023-05-14T14:55:42;27.50;51.30
12843;DHT22;35724;49.324;-123.118;2023-05-14T15:05:49;27.50;51.30
12843;DHT22;35724;49.324;-123.118;2023-05-14T15:16:24;27.70;51.40
12843;DHT22;35724;49.324;-123.118;2023-05-14T15:26:39;27.70;50.30
12843;DHT22;35724;49.324;-123.118;2023-05-14T15:37:12;27.70;49.80
12843;DHT22;35724;49.324;-123.118;2023-05-14T15:47:33;27.50;49.00
12843;DHT22;35724;49.324;-123.118;2023-05-14T15:57:53;27.40;47.30
12843;DHT22;35724;49.324;-123.118;2023-05-14T16:08:06;27.10;47.10
12843;DHT22;35724;49.324;-123.118;2023-05-14T16:18:24;27.00;47.80
12843;DHT22;35724;49.324;-123.118;2023-05-14T16:28:43;27.00;48.70
12843;DHT22;35724;49.324;-123.118;2023-05-14T16:39:00;26.90;49.50
12843;DHT22;35724;49.324;-123.118;2023-05-14T16:49:13;26.80;50.60
12843;DHT22;35724;49.324;-123.118;2023-05-14T16:59:31;26.80;50.10
12843;DHT22;35724;49.324;-123.118;2023-05-14T17:09:40;26.70;51.60
12843;DHT22;35724;49.324;-123.118;2023-05-14T17:19:48;26.70;52.20
12843;DHT22;35724;49.324;-123.118;2023-05-14T17:29:55;26.70;52.80
12843;DHT22;35724;49.324;-123.118;2023-05-14T17:40:05;26.70;53.60
12843;DHT22;35724;49.324;-123.118;2023-05-14T17:50:16;26.50;53.50
12843;DHT22;35724;49.324;-123.118;2023-05-14T18:00:29;26.50;53.50
12843;DHT22;35724;49.324;-123.118;2023-05-14T18:10:36;26.50;54.40
12843;DHT22;35724;49.324;-123.118;2023-05-14T18:20:45;26.50;53.50
12843;DHT22;35724;49.324;-123.118;2023-05-14T18:30:52;26.50;51.30
12843;DHT22;35724;49.324;-123.118;2023-05-14T18:41:01;26.60;53.70
12843;DHT22;35724;49.324;-123.118;2023-05-14T18:51:08;26.50;54.40
12843;DHT22;35724;49.324;-123.118;2023-05-14T19:01:17;26.40;55.30
12843;DHT22;35724;49.324;-123.118;2023-05-14T19:11:25;26.30;56.30
12843;DHT22;35724;49.324;-123.118;2023-05-14T19:21:51;26.10;56.30
12843;DHT22;35724;49.324;-123.118;2023-05-14T19:32:01;25.70;57.10
12843;DHT22;35724;49.324;-123.118;2023-05-14T19:42:10;25.70;56.40
12843;DHT22;35724;49.324;-123.118;2023-05-14T19:52:25;25.70;56.30
12843;DHT22;35724;49.324;-123.118;2023-05-14T20:02:34;25.70;56.70
12843;DHT22;35724;49.324;-123.118;2023-05-14T20:12:41;25.60;55.90
12843;DHT22;35724;49.324;-123.118;2023-05-14T20:22:49;25.60;55.20
12843;DHT22;35724;49.324;-123.118;2023-05-14T20:32:56;25.50;55.30
12843;DHT22;35724;49.324;-123.118;2023-05-14T20:43:06;25.50;54.20
12843;DHT22;35724;49.324;-123.118;2023-05-14T20:53:13;25.50;53.80
12843;DHT22;35724;49.324;-123.118;2023-05-14T21:03:21;25.60;54.90
12843;DHT22;35724;49.324;-123.118;2023-05-14T21:13:28;25.70;55.10
12843;DHT22;35724;49.324;-123.118;2023-05-14T21:23:37;25.70;55.50
12843;DHT22;35724;49.324;-123.118;2023-05-14T21:33:44;25.90;55.60
12843;DHT22;35724;49.324;-123.118;2023-05-14T21:43:52;26.00;54.60
12843;DHT22;35724;49.324;-123.118;2023-05-14T21:53:59;26.00;55.30
12843;DHT22;35724;49.324;-123.118;2023-05-14T22:04:07;26.10;55.00
12843;DHT22;35724;49.324;-123.118;2023-05-14T22:14:15;26.10;54.30
12843;DHT22;35724;49.324;-123.118;2023-05-14T22:24:24;26.20;55.70
12843;DHT22;35724;49.324;-123.118;2023-05-14T22:34:31;26.30;57.00
12843;DHT22;35724;49.324;-123.118;2023-05-14T22:44:40;26.30;57.00
12843;DHT22;35724;49.324;-123.118;2023-05-14T22:54:47;26.20;57.20
12843;DHT22;35724;49.324;-123.118;2023-05-14T23:04:56;26.30;57.00
12843;DHT22;35724;49.324;-123.118;2023-05-14T23:15:03;26.40;57.40
12843;DHT22;35724;49.324;-123.118;2023-05-14T23:25:24;26.40;56.80
12843;DHT22;35724;49.324;-123.118;2023-05-14T23:35:38;26.50;57.40
12843;DHT22;35724;49.324;-123.118;2023-05-14T23:45:47;26.50;55.70
12843;DHT22;35724;49.324;-123.118;2023-05-14T23:55:54;26.60;56.60
